sensor_id;sensor_type;location;lat;lon;timestamp;P1;durP1;ratioP1;P2;durP2;ratioP2
23044;SDS011;11690;51.716;23.066;2023-01-19T00:00:53;34.63;;;22.93;;
23044;SDS011;11690;51.716;23.066;2023-01-19T00:03:26;38.07;;;22.73;;
23044;SDS011;11690;51.716;23.066;2023-01-19T00:05:54;34.57;;;20.97;;
23044;SDS011;11690;51.716;23.066;2023-01-19T00:08:21;32.10;;;20.97;;
23044;SDS011;11690;51.716;23.066;2023-01-19T00:10:48;34.20;;;20.83;;
23044;SDS011;11690;51.716;23.066;2023-01-19T00:13:19;32.83;;;20.80;;
23044;SDS011;11690;51.716;23.066;2023-01-19T00:15:46;32.07;;;19.77;;
23044;SDS011;11690;51.716;23.066;2023-01-19T00:18:13;31.47;;;20.07;;
23044;SDS011;11690;51.716;23.066;2023-01-19T00:20:41;30.30;;;18.37;;
23044;SDS011;11690;51.716;23.066;2023-01-19T00:23:08;31.00;;;19.23;;
23044;SDS011;11690;51.716;23.066;2023-01-19T00:25:35;41.67;;;25.77;;
23044;SDS011;11690;51.716;23.066;2023-01-19T00:28:12;49.57;;;25.20;;
23044;SDS011;11690;51.716;23.066;2023-01-19T00:30:40;27.43;;;16.23;;
23044;SDS011;11690;51.716;23.066;2023-01-19T00:33:08;30.43;;;15.97;;
23044;SDS011;11690;51.716;23.066;2023-01-19T00:35:36;26.57;;;15.60;;
23044;SDS011;11690;51.716;23.066;2023-01-19T00:38:03;29.83;;;16.63;;
23044;SDS011;11690;51.716;23.066;2023-01-19T00:40:30;32.60;;;17.40;;
23044;SDS011;11690;51.716;23.066;2023-01-19T00:42:57;27.90;;;16.10;;
23044;SDS011;11690;51.716;23.066;2023-01-19T00:45:27;28.87;;;15.90;;
23044;SDS011;11690;51.716;23.066;2023-01-19T00:47:54;24.27;;;13.80;;
23044;SDS011;11690;51.716;23.066;2023-01-19T00:50:23;24.47;;;14.27;;
23044;SDS011;11690;51.716;23.066;2023-01-19T00:52:53;20.73;;;12.73;;
23044;SDS011;11690;51.716;23.066;2023-01-19T00:55:21;19.27;;;11.57;;
23044;SDS011;11690;51.716;23.066;2023-01-19T00:57:48;19.63;;;11.43;;
23044;SDS011;11690;51.716;23.066;2023-01-19T01:00:16;14.83;;;9.13;;
23044;SDS011;11690;51.716;23.066;2023-01-19T01:02:48;13.77;;;8.63;;
23044;SDS011;11690;51.716;23.066;2023-01-19T01:05:17;15.67;;;8.43;;
23044;SDS011;11690;51.716;23.066;2023-01-19T01:07:44;13.40;;;8.27;;
23044;SDS011;11690;51.716;23.066;2023-01-19T01:10:14;14.07;;;9.50;;
23044;SDS011;11690;51.716;23.066;2023-01-19T01:12:48;13.27;;;8.03;;
23044;SDS011;11690;51.716;23.066;2023-01-19T01:15:36;17.87;;;8.70;;
23044;SDS011;11690;51.716;23.066;2023-01-19T01:18:03;18.87;;;9.47;;
23044;SDS011;11690;51.716;23.066;2023-01-19T01:20:30;17.43;;;9.70;;
23044;SDS011;11690;51.716;23.066;2023-01-19T01:23:00;13.77;;;8.57;;
23044;SDS011;11690;51.716;23.066;2023-01-19T01:25:28;13.47;;;7.97;;
23044;SDS011;11690;51.716;23.066;2023-01-19T01:27:56;14.10;;;8.17;;
23044;SDS011;11690;51.716;23.066;2023-01-19T01:30:23;17.27;;;9.47;;
23044;SDS011;11690;51.716;23.066;2023-01-19T01:32:50;14.67;;;8.83;;
23044;SDS011;11690;51.716;23.066;2023-01-19T01:35:18;14.10;;;9.13;;
23044;SDS011;11690;51.716;23.066;2023-01-19T01:37:45;14.07;;;8.50;;
23044;SDS011;11690;51.716;23.066;2023-01-19T01:40:13;14.53;;;9.30;;
23044;SDS011;11690;51.716;23.066;2023-01-19T01:42:42;16.70;;;9.77;;
23044;SDS011;11690;51.716;23.066;2023-01-19T01:45:21;20.37;;;11.37;;
23044;SDS011;11690;51.716;23.066;2023-01-19T01:47:56;15.67;;;9.17;;
23044;SDS011;11690;51.716;23.066;2023-01-19T01:50:27;14.90;;;8.77;;
23044;SDS011;11690;51.716;23.066;2023-01-19T01:53:02;13.77;;;8.27;;
23044;SDS011;11690;51.716;23.066;2023-01-19T01:55:35;15.07;;;8.73;;
23044;SDS011;11690;51.716;23.066;2023-01-19T01:58:06;13.57;;;8.43;;
23044;SDS011;11690;51.716;23.066;2023-01-19T02:00:35;13.87;;;8.47;;
23044;SDS011;11690;51.716;23.066;2023-01-19T02:03:22;18.77;;;9.80;;
23044;SDS011;11690;51.716;23.066;2023-01-19T02:05:50;24.10;;;11.27;;
23044;SDS011;11690;51.716;23.066;2023-01-19T02:08:19;29.57;;;11.67;;
23044;SDS011;11690;51.716;23.066;2023-01-19T02:11:11;23.40;;;12.63;;
23044;SDS011;11690;51.716;23.066;2023-01-19T02:13:57;19.07;;;12.87;;
23044;SDS011;11690;51.716;23.066;2023-01-19T02:16:24;24.20;;;14.20;;
23044;SDS011;11690;51.716;23.066;2023-01-19T02:18:51;27.33;;;15.10;;
23044;SDS011;11690;51.716;23.066;2023-01-19T02:21:20;37.53;;;15.73;;
23044;SDS011;11690;51.716;23.066;2023-01-19T02:23:55;28.50;;;12.90;;
23044;SDS011;11690;51.716;23.066;2023-01-19T02:26:27;16.60;;;9.90;;
23044;SDS011;11690;51.716;23.066;2023-01-19T02:28:58;14.80;;;8.80;;
23044;SDS011;11690;51.716;23.066;2023-01-19T02:31:30;14.03;;;8.30;;
23044;SDS011;11690;51.716;23.066;2023-01-19T02:33:58;16.10;;;9.07;;
23044;SDS011;11690;51.716;23.066;2023-01-19T02:36:31;17.20;;;9.57;;
23044;SDS011;11690;51.716;23.066;2023-01-19T02:39:01;15.50;;;9.50;;
23044;SDS011;11690;51.716;23.066;2023-01-19T02:41:31;28.53;;;12.03;;
23044;SDS011;11690;51.716;23.066;2023-01-19T02:44:02;25.93;;;11.10;;
23044;SDS011;11690;51.716;23.066;2023-01-19T02:46:30;35.13;;;17.37;;
23044;SDS011;11690;51.716;23.066;2023-01-19T02:48:58;43.00;;;17.40;;
23044;SDS011;11690;51.716;23.066;2023-01-19T02:51:26;127.87;;;34.87;;
23044;SDS011;11690;51.716;23.066;2023-01-19T03:02:17;54.87;;;20.63;;
23044;SDS011;11690;51.716;23.066;2023-01-19T03:07:34;33.10;;;11.83;;
23044;SDS011;11690;51.716;23.066;2023-01-19T03:13:00;31.43;;;15.67;;
23044;SDS011;11690;51.716;23.066;2023-01-19T03:15:51;190.83;;;62.13;;
23044;SDS011;11690;51.716;23.066;2023-01-19T03:18:22;185.87;;;49.23;;
23044;SDS011;11690;51.716;23.066;2023-01-19T03:20:52;27.17;;;12.53;;
23044;SDS011;11690;51.716;23.066;2023-01-19T03:23:23;14.70;;;8.20;;
23044;SDS011;11690;51.716;23.066;2023-01-19T03:25:52;13.90;;;8.70;;
23044;SDS011;11690;51.716;23.066;2023-01-19T03:28:21;12.10;;;7.43;;
23044;SDS011;11690;51.716;23.066;2023-01-19T03:30:57;17.53;;;9.73;;
23044;SDS011;11690;51.716;23.066;2023-01-19T03:33:35;15.80;;;9.37;;
23044;SDS011;11690;51.716;23.066;2023-01-19T03:36:04;17.40;;;9.60;;
23044;SDS011;11690;51.716;23.066;2023-01-19T03:38:36;23.97;;;10.57;;
23044;SDS011;11690;51.716;23.066;2023-01-19T03:41:04;48.73;;;16.43;;
23044;SDS011;11690;51.716;23.066;2023-01-19T03:43:34;39.27;;;16.93;;
23044;SDS011;11690;51.716;23.066;2023-01-19T03:46:02;29.43;;;14.80;;
23044;SDS011;11690;51.716;23.066;2023-01-19T03:48:31;52.17;;;17.90;;
23044;SDS011;11690;51.716;23.066;2023-01-19T03:51:01;82.50;;;23.40;;
23044;SDS011;11690;51.716;23.066;2023-01-19T03:53:30;55.27;;;18.33;;
23044;SDS011;11690;51.716;23.066;2023-01-19T03:55:57;45.47;;;16.03;;
23044;SDS011;11690;51.716;23.066;2023-01-19T03:58:24;53.43;;;20.07;;
23044;SDS011;11690;51.716;23.066;2023-01-19T04:00:51;54.73;;;19.47;;
23044;SDS011;11690;51.716;23.066;2023-01-19T04:03:18;124.47;;;43.70;;
23044;SDS011;11690;51.716;23.066;2023-01-19T04:05:45;83.37;;;37.37;;
23044;SDS011;11690;51.716;23.066;2023-01-19T04:08:13;39.00;;;17.30;;
23044;SDS011;11690;51.716;23.066;2023-01-19T04:10:40;27.23;;;13.73;;
23044;SDS011;11690;51.716;23.066;2023-01-19T04:13:07;27.63;;;15.13;;
23044;SDS011;11690;51.716;23.066;2023-01-19T04:15:34;33.53;;;20.90;;
23044;SDS011;11690;51.716;23.066;2023-01-19T04:18:01;88.80;;;37.40;;
23044;SDS011;11690;51.716;23.066;2023-01-19T04:20:29;134.20;;;36.23;;
23044;SDS011;11690;51.716;23.066;2023-01-19T04:22:59;99.13;;;30.23;;
23044;SDS011;11690;51.716;23.066;2023-01-19T04:25:27;66.97;;;22.43;;
23044;SDS011;11690;51.716;23.066;2023-01-19T04:27:55;48.13;;;19.57;;
23044;SDS011;11690;51.716;23.066;2023-01-19T04:30:25;51.53;;;18.07;;
23044;SDS011;11690;51.716;23.066;2023-01-19T04:32:53;47.43;;;18.83;;
23044;SDS011;11690;51.716;23.066;2023-01-19T04:35:24;30.03;;;13.63;;
23044;SDS011;11690;51.716;23.066;2023-01-19T04:37:51;46.63;;;19.63;;
23044;SDS011;11690;51.716;23.066;2023-01-19T04:40:18;78.27;;;22.47;;
23044;SDS011;11690;51.716;23.066;2023-01-19T04:42:46;48.57;;;17.10;;
23044;SDS011;11690;51.716;23.066;2023-01-19T04:45:13;51.07;;;23.40;;
23044;SDS011;11690;51.716;23.066;2023-01-19T04:47:40;33.60;;;16.80;;
23044;SDS011;11690;51.716;23.066;2023-01-19T04:50:09;20.37;;;11.50;;
23044;SDS011;11690;51.716;23.066;2023-01-19T04:52:36;18.80;;;10.97;;
23044;SDS011;11690;51.716;23.066;2023-01-19T04:55:04;24.97;;;12.73;;
23044;SDS011;11690;51.716;23.066;2023-01-19T04:57:32;26.40;;;12.50;;
23044;SDS011;11690;51.716;23.066;2023-01-19T04:59:59;85.33;;;30.67;;
23044;SDS011;11690;51.716;23.066;2023-01-19T05:02:27;71.20;;;24.53;;
23044;SDS011;11690;51.716;23.066;2023-01-19T05:04:54;57.90;;;21.40;;
23044;SDS011;11690;51.716;23.066;2023-01-19T05:07:21;53.57;;;23.07;;
23044;SDS011;11690;51.716;23.066;2023-01-19T05:09:48;29.63;;;14.67;;
23044;SDS011;11690;51.716;23.066;2023-01-19T05:12:15;19.60;;;11.40;;
23044;SDS011;11690;51.716;23.066;2023-01-19T05:14:43;20.13;;;11.40;;
23044;SDS011;11690;51.716;23.066;2023-01-19T05:17:10;17.77;;;10.80;;
23044;SDS011;11690;51.716;23.066;2023-01-19T05:19:37;17.40;;;10.47;;
23044;SDS011;11690;51.716;23.066;2023-01-19T05:22:05;41.40;;;18.80;;
23044;SDS011;11690;51.716;23.066;2023-01-19T05:24:32;118.43;;;33.23;;
23044;SDS011;11690;51.716;23.066;2023-01-19T05:27:00;107.03;;;31.00;;
23044;SDS011;11690;51.716;23.066;2023-01-19T05:29:27;126.00;;;37.03;;
23044;SDS011;11690;51.716;23.066;2023-01-19T05:31:54;57.17;;;21.73;;
23044;SDS011;11690;51.716;23.066;2023-01-19T05:34:21;39.60;;;16.30;;
23044;SDS011;11690;51.716;23.066;2023-01-19T05:36:49;28.60;;;13.77;;
23044;SDS011;11690;51.716;23.066;2023-01-19T05:39:16;19.80;;;11.47;;
23044;SDS011;11690;51.716;23.066;2023-01-19T05:41:43;35.17;;;15.30;;
23044;SDS011;11690;51.716;23.066;2023-01-19T05:44:11;37.33;;;17.37;;
23044;SDS011;11690;51.716;23.066;2023-01-19T05:46:39;21.80;;;12.60;;
23044;SDS011;11690;51.716;23.066;2023-01-19T05:49:06;19.80;;;11.73;;
23044;SDS011;11690;51.716;23.066;2023-01-19T05:51:34;19.70;;;11.43;;
23044;SDS011;11690;51.716;23.066;2023-01-19T05:54:04;20.80;;;11.70;;
23044;SDS011;11690;51.716;23.066;2023-01-19T05:56:32;19.10;;;10.60;;
23044;SDS011;11690;51.716;23.066;2023-01-19T05:58:59;17.83;;;10.37;;
23044;SDS011;11690;51.716;23.066;2023-01-19T06:01:27;17.83;;;10.43;;
23044;SDS011;11690;51.716;23.066;2023-01-19T06:03:54;24.30;;;13.23;;
23044;SDS011;11690;51.716;23.066;2023-01-19T06:06:22;29.13;;;16.00;;
23044;SDS011;11690;51.716;23.066;2023-01-19T06:08:49;24.47;;;13.70;;
23044;SDS011;11690;51.716;23.066;2023-01-19T06:11:16;27.20;;;15.97;;
23044;SDS011;11690;51.716;23.066;2023-01-19T06:13:43;25.17;;;14.97;;
23044;SDS011;11690;51.716;23.066;2023-01-19T06:16:11;24.77;;;13.87;;
23044;SDS011;11690;51.716;23.066;2023-01-19T06:18:38;23.93;;;14.13;;
23044;SDS011;11690;51.716;23.066;2023-01-19T06:21:06;26.70;;;16.00;;
23044;SDS011;11690;51.716;23.066;2023-01-19T06:23:34;28.53;;;16.03;;
23044;SDS011;11690;51.716;23.066;2023-01-19T06:26:01;45.20;;;21.93;;
23044;SDS011;11690;51.716;23.066;2023-01-19T06:28:29;26.23;;;14.70;;
23044;SDS011;11690;51.716;23.066;2023-01-19T06:30:56;23.83;;;13.63;;
23044;SDS011;11690;51.716;23.066;2023-01-19T06:33:24;20.00;;;12.70;;
23044;SDS011;11690;51.716;23.066;2023-01-19T06:35:51;26.57;;;16.27;;
23044;SDS011;11690;51.716;23.066;2023-01-19T06:38:18;31.47;;;17.97;;
23044;SDS011;11690;51.716;23.066;2023-01-19T06:40:53;46.17;;;24.73;;
23044;SDS011;11690;51.716;23.066;2023-01-19T06:43:21;95.50;;;37.20;;
23044;SDS011;11690;51.716;23.066;2023-01-19T06:45:49;35.17;;;18.37;;
23044;SDS011;11690;51.716;23.066;2023-01-19T06:48:16;20.97;;;12.87;;
23044;SDS011;11690;51.716;23.066;2023-01-19T06:50:44;21.77;;;12.90;;
23044;SDS011;11690;51.716;23.066;2023-01-19T06:53:12;22.57;;;13.33;;
23044;SDS011;11690;51.716;23.066;2023-01-19T06:55:40;21.23;;;13.37;;
23044;SDS011;11690;51.716;23.066;2023-01-19T06:58:07;26.23;;;14.40;;
23044;SDS011;11690;51.716;23.066;2023-01-19T07:00:34;32.00;;;16.70;;
23044;SDS011;11690;51.716;23.066;2023-01-19T07:03:01;26.03;;;15.30;;
23044;SDS011;11690;51.716;23.066;2023-01-19T07:05:29;29.03;;;16.07;;
23044;SDS011;11690;51.716;23.066;2023-01-19T07:07:56;25.00;;;14.93;;
23044;SDS011;11690;51.716;23.066;2023-01-19T07:10:23;24.10;;;13.87;;
23044;SDS011;11690;51.716;23.066;2023-01-19T07:12:50;24.97;;;15.23;;
23044;SDS011;11690;51.716;23.066;2023-01-19T07:15:18;24.67;;;14.57;;
23044;SDS011;11690;51.716;23.066;2023-01-19T07:17:48;28.00;;;14.93;;
23044;SDS011;11690;51.716;23.066;2023-01-19T07:20:15;25.13;;;15.23;;
23044;SDS011;11690;51.716;23.066;2023-01-19T07:22:45;27.53;;;14.97;;
23044;SDS011;11690;51.716;23.066;2023-01-19T07:25:12;26.37;;;15.27;;
23044;SDS011;11690;51.716;23.066;2023-01-19T07:27:40;27.90;;;15.33;;
23044;SDS011;11690;51.716;23.066;2023-01-19T07:30:07;26.17;;;15.83;;
23044;SDS011;11690;51.716;23.066;2023-01-19T07:32:35;26.83;;;15.97;;
23044;SDS011;11690;51.716;23.066;2023-01-19T07:35:02;30.00;;;16.43;;
23044;SDS011;11690;51.716;23.066;2023-01-19T07:37:30;28.67;;;16.73;;
23044;SDS011;11690;51.716;23.066;2023-01-19T07:39:57;31.00;;;18.60;;
23044;SDS011;11690;51.716;23.066;2023-01-19T07:42:24;31.43;;;18.33;;
23044;SDS011;11690;51.716;23.066;2023-01-19T07:44:51;28.73;;;18.00;;
23044;SDS011;11690;51.716;23.066;2023-01-19T07:47:19;29.83;;;17.67;;
23044;SDS011;11690;51.716;23.066;2023-01-19T07:49:46;29.23;;;17.50;;
23044;SDS011;11690;51.716;23.066;2023-01-19T07:52:13;28.20;;;17.07;;
23044;SDS011;11690;51.716;23.066;2023-01-19T07:54:40;29.13;;;17.37;;
23044;SDS011;11690;51.716;23.066;2023-01-19T07:57:07;30.63;;;17.63;;
23044;SDS011;11690;51.716;23.066;2023-01-19T07:59:35;33.43;;;19.83;;
23044;SDS011;11690;51.716;23.066;2023-01-19T08:02:02;50.10;;;23.60;;
23044;SDS011;11690;51.716;23.066;2023-01-19T08:04:29;65.73;;;30.80;;
23044;SDS011;11690;51.716;23.066;2023-01-19T08:06:56;52.57;;;23.80;;
23044;SDS011;11690;51.716;23.066;2023-01-19T08:09:24;54.47;;;23.30;;
23044;SDS011;11690;51.716;23.066;2023-01-19T08:11:51;46.70;;;21.67;;
23044;SDS011;11690;51.716;23.066;2023-01-19T08:14:18;39.07;;;20.13;;
23044;SDS011;11690;51.716;23.066;2023-01-19T08:16:45;31.77;;;18.60;;
23044;SDS011;11690;51.716;23.066;2023-01-19T08:19:12;29.87;;;18.50;;
23044;SDS011;11690;51.716;23.066;2023-01-19T08:21:39;27.07;;;17.03;;
23044;SDS011;11690;51.716;23.066;2023-01-19T08:24:09;28.70;;;17.40;;
23044;SDS011;11690;51.716;23.066;2023-01-19T08:26:44;28.97;;;17.37;;
23044;SDS011;11690;51.716;23.066;2023-01-19T08:29:11;34.47;;;18.50;;
23044;SDS011;11690;51.716;23.066;2023-01-19T08:31:38;29.00;;;17.50;;
23044;SDS011;11690;51.716;23.066;2023-01-19T08:34:06;30.90;;;18.27;;
23044;SDS011;11690;51.716;23.066;2023-01-19T08:36:33;34.90;;;18.53;;
23044;SDS011;11690;51.716;23.066;2023-01-19T08:39:01;35.43;;;19.00;;
23044;SDS011;11690;51.716;23.066;2023-01-19T08:41:28;43.23;;;22.57;;
23044;SDS011;11690;51.716;23.066;2023-01-19T08:43:55;42.97;;;23.63;;
23044;SDS011;11690;51.716;23.066;2023-01-19T08:46:22;64.53;;;33.77;;
23044;SDS011;11690;51.716;23.066;2023-01-19T08:48:50;38.03;;;20.87;;
23044;SDS011;11690;51.716;23.066;2023-01-19T08:51:17;27.83;;;16.63;;
23044;SDS011;11690;51.716;23.066;2023-01-19T08:53:45;33.37;;;19.27;;
23044;SDS011;11690;51.716;23.066;2023-01-19T08:56:12;44.70;;;23.00;;
23044;SDS011;11690;51.716;23.066;2023-01-19T08:58:41;46.90;;;22.97;;
23044;SDS011;11690;51.716;23.066;2023-01-19T09:01:09;65.87;;;28.50;;
23044;SDS011;11690;51.716;23.066;2023-01-19T09:03:40;43.83;;;19.90;;
23044;SDS011;11690;51.716;23.066;2023-01-19T09:06:09;37.27;;;20.07;;
23044;SDS011;11690;51.716;23.066;2023-01-19T09:08:38;26.53;;;16.37;;
23044;SDS011;11690;51.716;23.066;2023-01-19T09:11:08;27.37;;;16.87;;
23044;SDS011;11690;51.716;23.066;2023-01-19T09:13:37;25.83;;;15.97;;
23044;SDS011;11690;51.716;23.066;2023-01-19T09:16:05;24.83;;;15.30;;
23044;SDS011;11690;51.716;23.066;2023-01-19T09:18:34;23.27;;;15.20;;
23044;SDS011;11690;51.716;23.066;2023-01-19T09:21:01;32.80;;;17.63;;
23044;SDS011;11690;51.716;23.066;2023-01-19T09:23:29;60.30;;;25.60;;
23044;SDS011;11690;51.716;23.066;2023-01-19T09:25:57;53.57;;;22.70;;
23044;SDS011;11690;51.716;23.066;2023-01-19T09:28:26;38.37;;;17.57;;
23044;SDS011;11690;51.716;23.066;2023-01-19T09:30:55;33.17;;;16.23;;
23044;SDS011;11690;51.716;23.066;2023-01-19T09:33:22;36.83;;;21.10;;
23044;SDS011;11690;51.716;23.066;2023-01-19T09:35:50;29.30;;;16.17;;
23044;SDS011;11690;51.716;23.066;2023-01-19T09:38:18;24.17;;;14.97;;
23044;SDS011;11690;51.716;23.066;2023-01-19T09:40:50;33.70;;;16.77;;
23044;SDS011;11690;51.716;23.066;2023-01-19T09:46:11;42.07;;;20.67;;
23044;SDS011;11690;51.716;23.066;2023-01-19T09:48:56;31.30;;;15.87;;
23044;SDS011;11690;51.716;23.066;2023-01-19T09:51:25;33.60;;;16.70;;
23044;SDS011;11690;51.716;23.066;2023-01-19T09:56:51;47.47;;;24.63;;
23044;SDS011;11690;51.716;23.066;2023-01-19T09:59:20;39.53;;;19.27;;
23044;SDS011;11690;51.716;23.066;2023-01-19T10:04:33;33.23;;;17.13;;
23044;SDS011;11690;51.716;23.066;2023-01-19T10:09:40;28.13;;;16.97;;
23044;SDS011;11690;51.716;23.066;2023-01-19T10:12:14;35.17;;;17.73;;
23044;SDS011;11690;51.716;23.066;2023-01-19T10:14:52;35.13;;;18.73;;
23044;SDS011;11690;51.716;23.066;2023-01-19T10:20:06;30.80;;;16.90;;
23044;SDS011;11690;51.716;23.066;2023-01-19T10:22:46;34.60;;;18.10;;
23044;SDS011;11690;51.716;23.066;2023-01-19T10:25:16;32.50;;;18.53;;
23044;SDS011;11690;51.716;23.066;2023-01-19T10:27:45;35.07;;;20.13;;
23044;SDS011;11690;51.716;23.066;2023-01-19T10:30:31;31.90;;;18.03;;
23044;SDS011;11690;51.716;23.066;2023-01-19T10:32:58;29.50;;;17.40;;
23044;SDS011;11690;51.716;23.066;2023-01-19T10:35:27;29.63;;;16.97;;
23044;SDS011;11690;51.716;23.066;2023-01-19T10:37:55;32.23;;;17.27;;
23044;SDS011;11690;51.716;23.066;2023-01-19T10:40:29;28.60;;;17.87;;
23044;SDS011;11690;51.716;23.066;2023-01-19T10:43:00;28.60;;;16.37;;
23044;SDS011;11690;51.716;23.066;2023-01-19T10:45:28;25.87;;;15.87;;
23044;SDS011;11690;51.716;23.066;2023-01-19T10:47:57;29.90;;;16.90;;
23044;SDS011;11690;51.716;23.066;2023-01-19T10:50:31;29.10;;;17.20;;
23044;SDS011;11690;51.716;23.066;2023-01-19T10:53:01;30.17;;;18.27;;
23044;SDS011;11690;51.716;23.066;2023-01-19T10:55:36;32.67;;;17.63;;
23044;SDS011;11690;51.716;23.066;2023-01-19T10:58:05;33.47;;;18.33;;
23044;SDS011;11690;51.716;23.066;2023-01-19T11:00:37;33.63;;;18.53;;
23044;SDS011;11690;51.716;23.066;2023-01-19T11:03:24;34.87;;;18.73;;
23044;SDS011;11690;51.716;23.066;2023-01-19T11:06:17;30.97;;;17.27;;
23044;SDS011;11690;51.716;23.066;2023-01-19T11:08:47;35.80;;;19.80;;
23044;SDS011;11690;51.716;23.066;2023-01-19T11:11:20;35.33;;;19.73;;
23044;SDS011;11690;51.716;23.066;2023-01-19T11:16:53;37.47;;;20.90;;
23044;SDS011;11690;51.716;23.066;2023-01-19T11:19:28;37.70;;;20.20;;
23044;SDS011;11690;51.716;23.066;2023-01-19T11:24:50;45.37;;;22.30;;
23044;SDS011;11690;51.716;23.066;2023-01-19T11:27:20;45.73;;;23.77;;
23044;SDS011;11690;51.716;23.066;2023-01-19T11:29:55;44.00;;;23.07;;
23044;SDS011;11690;51.716;23.066;2023-01-19T11:32:50;45.60;;;24.37;;
23044;SDS011;11690;51.716;23.066;2023-01-19T11:40:38;50.23;;;25.43;;
23044;SDS011;11690;51.716;23.066;2023-01-19T11:43:09;47.73;;;24.97;;
23044;SDS011;11690;51.716;23.066;2023-01-19T11:45:37;50.50;;;26.53;;
23044;SDS011;11690;51.716;23.066;2023-01-19T11:48:05;50.47;;;26.13;;
23044;SDS011;11690;51.716;23.066;2023-01-19T11:50:42;44.10;;;23.33;;
23044;SDS011;11690;51.716;23.066;2023-01-19T11:53:24;51.27;;;25.40;;
23044;SDS011;11690;51.716;23.066;2023-01-19T11:55:55;49.27;;;25.20;;
23044;SDS011;11690;51.716;23.066;2023-01-19T11:58:25;49.90;;;26.47;;
23044;SDS011;11690;51.716;23.066;2023-01-19T12:03:56;52.37;;;25.40;;
23044;SDS011;11690;51.716;23.066;2023-01-19T12:06:30;53.83;;;27.17;;
23044;SDS011;11690;51.716;23.066;2023-01-19T12:09:00;50.57;;;26.07;;
23044;SDS011;11690;51.716;23.066;2023-01-19T12:11:33;48.83;;;25.67;;
23044;SDS011;11690;51.716;23.066;2023-01-19T12:14:16;54.23;;;28.20;;
23044;SDS011;11690;51.716;23.066;2023-01-19T12:16:45;52.80;;;27.57;;
23044;SDS011;11690;51.716;23.066;2023-01-19T12:19:15;52.50;;;27.10;;
23044;SDS011;11690;51.716;23.066;2023-01-19T12:21:44;53.77;;;27.07;;
23044;SDS011;11690;51.716;23.066;2023-01-19T12:24:21;53.43;;;27.80;;
23044;SDS011;11690;51.716;23.066;2023-01-19T12:27:36;53.77;;;26.40;;
23044;SDS011;11690;51.716;23.066;2023-01-19T12:30:24;52.37;;;26.80;;
23044;SDS011;11690;51.716;23.066;2023-01-19T12:36:03;57.00;;;28.40;;
23044;SDS011;11690;51.716;23.066;2023-01-19T12:41:15;53.27;;;27.33;;
23044;SDS011;11690;51.716;23.066;2023-01-19T12:46:39;49.80;;;24.77;;
23044;SDS011;11690;51.716;23.066;2023-01-19T12:54:40;50.07;;;26.30;;
23044;SDS011;11690;51.716;23.066;2023-01-19T12:57:23;48.37;;;26.07;;
23044;SDS011;11690;51.716;23.066;2023-01-19T13:00:04;43.63;;;24.60;;
23044;SDS011;11690;51.716;23.066;2023-01-19T13:02:40;45.00;;;24.50;;
23044;SDS011;11690;51.716;23.066;2023-01-19T13:05:13;47.07;;;24.33;;
23044;SDS011;11690;51.716;23.066;2023-01-19T13:21:35;35.47;;;20.33;;
23044;SDS011;11690;51.716;23.066;2023-01-19T13:24:06;36.30;;;20.40;;
23044;SDS011;11690;51.716;23.066;2023-01-19T13:26:39;38.57;;;22.33;;
23044;SDS011;11690;51.716;23.066;2023-01-19T13:29:09;38.13;;;22.53;;
23044;SDS011;11690;51.716;23.066;2023-01-19T13:31:39;41.17;;;21.87;;
23044;SDS011;11690;51.716;23.066;2023-01-19T13:34:12;38.33;;;22.03;;
23044;SDS011;11690;51.716;23.066;2023-01-19T13:36:45;35.30;;;20.53;;
23044;SDS011;11690;51.716;23.066;2023-01-19T13:39:19;37.60;;;20.33;;
23044;SDS011;11690;51.716;23.066;2023-01-19T13:41:52;38.33;;;20.90;;
23044;SDS011;11690;51.716;23.066;2023-01-19T13:44:25;42.17;;;21.47;;
23044;SDS011;11690;51.716;23.066;2023-01-19T13:46:54;49.53;;;23.57;;
23044;SDS011;11690;51.716;23.066;2023-01-19T13:52:03;42.50;;;22.13;;
23044;SDS011;11690;51.716;23.066;2023-01-19T13:54:46;33.57;;;19.93;;
23044;SDS011;11690;51.716;23.066;2023-01-19T13:57:23;33.27;;;18.80;;
23044;SDS011;11690;51.716;23.066;2023-01-19T14:02:38;35.80;;;19.27;;
23044;SDS011;11690;51.716;23.066;2023-01-19T14:13:29;43.13;;;23.07;;
23044;SDS011;11690;51.716;23.066;2023-01-19T14:16:00;33.10;;;18.93;;
23044;SDS011;11690;51.716;23.066;2023-01-19T14:18:32;38.03;;;21.30;;
23044;SDS011;11690;51.716;23.066;2023-01-19T14:37:00;39.93;;;19.30;;
23044;SDS011;11690;51.716;23.066;2023-01-19T14:39:29;57.30;;;23.53;;
23044;SDS011;11690;51.716;23.066;2023-01-19T14:41:59;35.97;;;19.47;;
23044;SDS011;11690;51.716;23.066;2023-01-19T14:44:33;31.70;;;18.33;;
23044;SDS011;11690;51.716;23.066;2023-01-19T14:47:03;31.43;;;19.63;;
23044;SDS011;11690;51.716;23.066;2023-01-19T14:49:34;28.03;;;18.20;;
23044;SDS011;11690;51.716;23.066;2023-01-19T14:52:05;31.37;;;18.53;;
23044;SDS011;11690;51.716;23.066;2023-01-19T14:54:46;28.50;;;17.10;;
23044;SDS011;11690;51.716;23.066;2023-01-19T14:57:14;28.80;;;17.70;;
23044;SDS011;11690;51.716;23.066;2023-01-19T14:59:41;30.03;;;15.87;;
23044;SDS011;11690;51.716;23.066;2023-01-19T15:02:14;24.03;;;14.97;;
23044;SDS011;11690;51.716;23.066;2023-01-19T15:04:44;28.73;;;15.57;;
23044;SDS011;11690;51.716;23.066;2023-01-19T15:07:17;27.27;;;14.10;;
23044;SDS011;11690;51.716;23.066;2023-01-19T15:09:47;26.87;;;15.00;;
23044;SDS011;11690;51.716;23.066;2023-01-19T15:12:15;24.00;;;13.67;;
23044;SDS011;11690;51.716;23.066;2023-01-19T15:14:43;23.93;;;14.47;;
23044;SDS011;11690;51.716;23.066;2023-01-19T15:17:18;25.47;;;13.93;;
23044;SDS011;11690;51.716;23.066;2023-01-19T15:19:52;27.07;;;15.63;;
23044;SDS011;11690;51.716;23.066;2023-01-19T15:22:20;27.90;;;15.87;;
23044;SDS011;11690;51.716;23.066;2023-01-19T15:24:48;26.73;;;15.27;;
23044;SDS011;11690;51.716;23.066;2023-01-19T15:27:16;19.17;;;11.40;;
23044;SDS011;11690;51.716;23.066;2023-01-19T15:29:43;19.17;;;11.60;;
23044;SDS011;11690;51.716;23.066;2023-01-19T15:32:12;18.73;;;12.20;;
23044;SDS011;11690;51.716;23.066;2023-01-19T15:34:40;19.40;;;11.97;;
23044;SDS011;11690;51.716;23.066;2023-01-19T15:37:07;20.93;;;12.13;;
23044;SDS011;11690;51.716;23.066;2023-01-19T15:39:34;21.73;;;13.33;;
23044;SDS011;11690;51.716;23.066;2023-01-19T15:42:02;21.73;;;12.27;;
23044;SDS011;11690;51.716;23.066;2023-01-19T15:44:29;22.23;;;12.50;;
23044;SDS011;11690;51.716;23.066;2023-01-19T15:46:56;25.03;;;13.17;;
23044;SDS011;11690;51.716;23.066;2023-01-19T15:49:24;23.97;;;14.43;;
23044;SDS011;11690;51.716;23.066;2023-01-19T15:51:52;26.73;;;15.23;;
23044;SDS011;11690;51.716;23.066;2023-01-19T15:54:19;26.20;;;15.20;;
23044;SDS011;11690;51.716;23.066;2023-01-19T15:56:46;31.03;;;16.70;;
23044;SDS011;11690;51.716;23.066;2023-01-19T15:59:13;31.83;;;17.40;;
23044;SDS011;11690;51.716;23.066;2023-01-19T16:01:40;34.10;;;18.30;;
23044;SDS011;11690;51.716;23.066;2023-01-19T16:04:08;36.67;;;19.23;;
23044;SDS011;11690;51.716;23.066;2023-01-19T16:06:36;38.17;;;18.93;;